Time;durP1;ratioP1;P1;durP2;ratioP2;P2;SDS_P1;SDS_P2;PMS_P1;PMS_P2;Temp;Humidity;BMP_temperature;BMP_pressure;BME280_temperature;BME280_humidity;BME280_pressure;Samples;Min_cycle;Max_cycle;Signal;HPM_P1;HPM_P2
2024/01/28 00:01:16;;;;;;;28.63;17.08;;;;;;;;;;5052320;28;21041;-62
2024/01/28 00:03:41;;;;;;;38.30;18.13;;;;;;;;;;5053989;28;20025;-62
2024/01/28 00:06:06;;;;;;;35.33;19.10;;;;;;;;;;5052641;28;20052;-62
2024/01/28 00:08:31;;;;;;;24.23;14.43;;;;;;;;;;5053812;28;20502;-63
2024/01/28 00:10:57;;;;;;;31.50;17.47;;;;;;;;;;5052278;28;20481;-63
2024/01/28 00:13:24;;;;;;;33.85;16.50;;;;;;;;;;5054161;28;20752;-63
2024/01/28 00:15:52;;;;;;;29.37;17.57;;;;;;;;;;5051975;28;20022;-63
2024/01/28 00:18:17;;;;;;;37.70;16.90;;;;;;;;;;5053754;28;20024;-62
2024/01/28 00:20:42;;;;;;;41.78;17.33;;;;;;;;;;5052120;28;20036;-63
2024/01/28 00:23:07;;;;;;;25.73;15.17;;;;;;;;;;5053596;28;20020;-62
2024/01/28 00:25:33;;;;;;;34.90;16.02;;;;;;;;;;5052387;28;20439;-63
2024/01/28 00:27:58;;;;;;;35.73;19.83;;;;;;;;;;5053444;28;20027;-62
2024/01/28 00:30:24;;;;;;;20.75;15.60;;;;;;;;;;5051761;28;21077;-63
2024/01/28 00:32:49;;;;;;;24.55;16.08;;;;;;;;;;5053766;28;20487;-63
2024/01/28 00:35:14;;;;;;;40.97;15.00;;;;;;;;;;5052179;28;20041;-62
2024/01/28 00:37:39;;;;;;;30.88;17.40;;;;;;;;;;5052810;28;20982;-62
2024/01/28 00:40:05;;;;;;;30.95;16.17;;;;;;;;;;5052154;28;20116;-63
2024/01/28 00:42:30;;;;;;;26.55;14.43;;;;;;;;;;5053427;28;20055;-63
2024/01/28 00:44:55;;;;;;;36.85;14.02;;;;;;;;;;5051491;28;20041;-63
2024/01/28 00:47:20;;;;;;;31.33;14.43;;;;;;;;;;5053546;28;20488;-63
2024/01/28 00:49:46;;;;;;;22.13;13.53;;;;;;;;;;5051753;28;20400;-63
2024/01/28 00:52:11;;;;;;;23.50;15.27;;;;;;;;;;5053070;28;20515;-62
2024/01/28 00:54:37;;;;;;;32.13;17.43;;;;;;;;;;5051490;28;20447;-62
2024/01/28 00:57:02;;;;;;;26.65;17.55;;;;;;;;;;5053127;28;20419;-62
2024/01/28 00:59:27;;;;;;;24.90;16.63;;;;;;;;;;5051333;28;20171;-63
2024/01/28 01:01:52;;;;;;;29.77;16.73;;;;;;;;;;5052897;28;20029;-63
2024/01/28 01:04:18;;;;;;;32.08;18.90;;;;;;;;;;5051723;28;20909;-62
2024/01/28 01:06:43;;;;;;;32.47;17.52;;;;;;;;;;5052366;28;20033;-62
2024/01/28 01:09:08;;;;;;;28.55;18.20;;;;;;;;;;5051123;28;20032;-63
2024/01/28 01:11:34;;;;;;;28.17;16.15;;;;;;;;;;5053034;28;20017;-62
2024/01/28 01:13:59;;;;;;;25.77;16.60;;;;;;;;;;5051089;28;20035;-62
2024/01/28 01:16:24;;;;;;;30.20;17.47;;;;;;;;;;5052686;28;20802;-63
2024/01/28 01:18:50;;;;;;;28.88;17.38;;;;;;;;;;5051097;28;20448;-63
2024/01/28 01:21:15;;;;;;;34.55;14.70;;;;;;;;;;5052520;28;20440;-63
2024/01/28 01:23:40;;;;;;;25.10;15.80;;;;;;;;;;5051087;28;20555;-63
2024/01/28 01:26:05;;;;;;;28.47;13.33;;;;;;;;;;5052708;28;20451;-63
2024/01/28 01:28:33;;;;;;;27.70;13.93;;;;;;;;;;5050968;28;20443;-63
2024/01/28 01:30:59;;;;;;;25.77;14.40;;;;;;;;;;5051903;28;20534;-63
2024/01/28 01:33:24;;;;;;;26.15;13.07;;;;;;;;;;5051454;28;20532;-63
2024/01/28 01:35:50;;;;;;;27.90;12.80;;;;;;;;;;5052355;28;20055;-63
2024/01/28 01:38:15;;;;;;;27.73;14.70;;;;;;;;;;5050693;28;20025;-63
2024/01/28 01:40:40;;;;;;;19.98;11.32;;;;;;;;;;5052117;28;20024;-64
2024/01/28 01:43:09;;;;;;;23.60;11.88;;;;;;;;;;5052172;28;20017;-64
2024/01/28 01:45:34;;;;;;;36.60;14.35;;;;;;;;;;5050834;28;20033;-64
2024/01/28 01:48:00;;;;;;;14.65;10.40;;;;;;;;;;5052037;28;20021;-64
2024/01/28 01:50:25;;;;;;;39.13;11.95;;;;;;;;;;5049102;28;20041;-63
2024/01/28 01:52:50;;;;;;;24.20;11.85;;;;;;;;;;5051964;28;20028;-64
2024/01/28 01:55:16;;;;;;;23.10;13.05;;;;;;;;;;5050451;28;20043;-63
2024/01/28 01:57:42;;;;;;;27.20;9.50;;;;;;;;;;5051344;28;20028;-65
2024/01/28 02:00:08;;;;;;;30.92;8.82;;;;;;;;;;5050215;28;20041;-64
2024/01/28 02:02:33;;;;;;;22.58;10.43;;;;;;;;;;5052288;28;20088;-64
2024/01/28 02:04:58;;;;;;;22.30;12.38;;;;;;;;;;5049872;28;20083;-66
2024/01/28 02:07:24;;;;;;;19.47;8.77;;;;;;;;;;5052041;28;20542;-66
2024/01/28 02:09:50;;;;;;;20.83;10.50;;;;;;;;;;5050207;28;20443;-66
2024/01/28 02:12:15;;;;;;;25.47;9.77;;;;;;;;;;5051425;28;20027;-66
2024/01/28 02:14:40;;;;;;;15.63;8.40;;;;;;;;;;5050074;28;21071;-66
2024/01/28 02:17:05;;;;;;;18.40;11.10;;;;;;;;;;5051620;28;20419;-66
2024/01/28 02:19:30;;;;;;;23.65;10.77;;;;;;;;;;5050009;28;20472;-66
2024/01/28 02:21:56;;;;;;;11.90;9.50;;;;;;;;;;5051326;28;20067;-66
2024/01/28 02:24:21;;;;;;;15.87;8.40;;;;;;;;;;5050173;28;21049;-64
2024/01/28 02:26:46;;;;;;;13.87;7.67;;;;;;;;;;5051117;28;20497;-64
2024/01/28 02:29:11;;;;;;;25.98;10.10;;;;;;;;;;5049575;28;20455;-64
2024/01/28 02:31:36;;;;;;;15.53;8.07;;;;;;;;;;5051150;28;20009;-64
2024/01/28 02:34:02;;;;;;;20.33;9.87;;;;;;;;;;5051488;28;20954;-64
2024/01/28 02:36:28;;;;;;;15.23;9.68;;;;;;;;;;5049608;28;20617;-64
2024/01/28 02:38:58;;;;;;;19.17;8.38;;;;;;;;;;5050828;28;20036;-63
2024/01/28 02:41:24;;;;;;;23.38;10.63;;;;;;;;;;5049663;28;20040;-64
2024/01/28 02:43:49;;;;;;;22.33;9.70;;;;;;;;;;5050919;28;20021;-63
2024/01/28 02:46:14;;;;;;;19.73;11.10;;;;;;;;;;5049830;28;20496;-64
2024/01/28 02:48:40;;;;;;;12.95;8.13;;;;;;;;;;5051175;28;20427;-64
2024/01/28 02:51:05;;;;;;;24.27;11.25;;;;;;;;;;5049009;28;20424;-59
2024/01/28 02:53:30;;;;;;;11.70;9.77;;;;;;;;;;5051139;28;20101;-63
2024/01/28 02:55:59;;;;;;;17.73;11.70;;;;;;;;;;5049273;28;20478;-64
2024/01/28 02:58:24;;;;;;;26.23;11.18;;;;;;;;;;5050791;28;20029;-64
2024/01/28 03:00:50;;;;;;;23.77;10.82;;;;;;;;;;5049231;28;20037;-64
2024/01/28 03:03:15;;;;;;;12.98;9.05;;;;;;;;;;5050900;28;20043;-64
2024/01/28 03:05:41;;;;;;;15.83;9.40;;;;;;;;;;5048979;28;20094;-64
2024/01/28 03:08:06;;;;;;;14.18;9.15;;;;;;;;;;5049706;28;20483;-64
2024/01/28 03:10:32;;;;;;;18.73;10.68;;;;;;;;;;5049607;28;20035;-64
2024/01/28 03:12:57;;;;;;;22.97;8.97;;;;;;;;;;5050270;28;20067;-64
2024/01/28 03:15:22;;;;;;;26.90;11.02;;;;;;;;;;5049602;28;21001;-64
2024/01/28 03:17:47;;;;;;;13.70;7.40;;;;;;;;;;5050503;28;20056;-63
2024/01/28 03:20:14;;;;;;;12.30;9.23;;;;;;;;;;5049136;28;21002;-64
2024/01/28 03:22:39;;;;;;;15.75;10.10;;;;;;;;;;5050629;28;20017;-64
2024/01/28 03:25:05;;;;;;;30.00;11.23;;;;;;;;;;5049245;28;20507;-64
2024/01/28 03:27:30;;;;;;;24.23;12.20;;;;;;;;;;5050236;28;20549;-64
2024/01/28 03:29:55;;;;;;;23.10;9.45;;;;;;;;;;5049019;28;20377;-64
2024/01/28 03:32:20;;;;;;;23.73;9.33;;;;;;;;;;5050563;28;20029;-64
2024/01/28 03:34:46;;;;;;;15.13;8.20;;;;;;;;;;5048880;28;20513;-64
2024/01/28 03:37:11;;;;;;;20.83;10.57;;;;;;;;;;5050598;28;20029;-64
2024/01/28 03:39:36;;;;;;;18.90;9.70;;;;;;;;;;5048760;28;20041;-64
2024/01/28 03:42:01;;;;;;;17.07;10.93;;;;;;;;;;5050179;28;20467;-64
2024/01/28 03:44:26;;;;;;;19.20;8.77;;;;;;;;;;5049142;28;20451;-63
2024/01/28 03:46:53;;;;;;;24.37;9.27;;;;;;;;;;5050207;28;20443;-63
2024/01/28 03:49:18;;;;;;;14.23;8.43;;;;;;;;;;5048740;28;20794;-62
2024/01/28 03:51:44;;;;;;;23.63;10.43;;;;;;;;;;5050626;28;20020;-62
2024/01/28 03:54:09;;;;;;;12.17;8.37;;;;;;;;;;5048977;28;20443;-63
2024/01/28 03:56:34;;;;;;;17.30;8.70;;;;;;;;;;5050400;28;20795;-63
2024/01/28 03:59:00;;;;;;;20.00;11.23;;;;;;;;;;5048469;28;20455;-63
2024/01/28 04:01:32;;;;;;;24.42;11.25;;;;;;;;;;5050597;28;20033;-63
2024/01/28 04:03:57;;;;;;;22.92;10.93;;;;;;;;;;5048374;28;20040;-63
2024/01/28 04:06:23;;;;;;;17.25;8.52;;;;;;;;;;5050603;28;20464;-64
2024/01/28 04:08:49;;;;;;;21.08;9.90;;;;;;;;;;5048677;28;20396;-64
2024/01/28 04:11:14;;;;;;;18.17;9.05;;;;;;;;;;5049966;28;20468;-64
2024/01/28 04:13:39;;;;;;;25.58;13.77;;;;;;;;;;5048531;28;20025;-64
2024/01/28 04:16:05;;;;;;;10.73;7.13;;;;;;;;;;5050359;28;20014;-64
2024/01/28 04:18:30;;;;;;;18.52;9.25;;;;;;;;;;5049184;28;20965;-64
2024/01/28 04:20:55;;;;;;;14.32;9.25;;;;;;;;;;5053632;28;20017;-64
2024/01/28 04:23:21;;;;;;;17.40;9.90;;;;;;;;;;5052420;28;20059;-64
2024/01/28 04:25:46;;;;;;;14.90;9.55;;;;;;;;;;5053274;28;20419;-64
2024/01/28 04:28:11;;;;;;;20.83;8.30;;;;;;;;;;5053485;28;20028;-64
2024/01/28 04:30:36;;;;;;;24.27;8.17;;;;;;;;;;5051871;28;20451;-64
2024/01/28 04:33:01;;;;;;;19.93;11.17;;;;;;;;;;5053408;28;20491;-64
2024/01/28 04:35:27;;;;;;;13.82;8.90;;;;;;;;;;5052342;28;20456;-63
2024/01/28 04:37:52;;;;;;;17.25;8.45;;;;;;;;;;5053062;28;20039;-64
2024/01/28 04:40:17;;;;;;;13.80;9.47;;;;;;;;;;5051611;28;20079;-64
2024/01/28 04:42:42;;;;;;;19.87;11.27;;;;;;;;;;5053277;28;20771;-63
2024/01/28 04:45:08;;;;;;;16.45;9.23;;;;;;;;;;5052136;28;20467;-64
2024/01/28 04:47:34;;;;;;;22.20;8.45;;;;;;;;;;5053013;28;20029;-64
2024/01/28 04:49:59;;;;;;;23.17;13.23;;;;;;;;;;5051856;28;20095;-64
2024/01/28 04:52:24;;;;;;;19.83;10.27;;;;;;;;;;5051878;28;20431;-64
2024/01/28 04:54:49;;;;;;;24.33;10.87;;;;;;;;;;5051675;28;20454;-64
2024/01/28 04:57:14;;;;;;;16.17;7.90;;;;;;;;;;5052628;28;20420;-64
2024/01/28 04:59:40;;;;;;;18.37;9.63;;;;;;;;;;5051706;28;20123;-64
2024/01/28 05:02:05;;;;;;;21.67;9.00;;;;;;;;;;5053196;28;20636;-64
2024/01/28 05:04:31;;;;;;;17.85;10.75;;;;;;;;;;5051278;28;20451;-64
2024/01/28 05:06:56;;;;;;;22.48;9.32;;;;;;;;;;5052796;28;20032;-64
2024/01/28 05:09:21;;;;;;;19.33;9.80;;;;;;;;;;5051732;28;20033;-63
2024/01/28 05:11:47;;;;;;;20.80;10.88;;;;;;;;;;5052349;28;20025;-63
2024/01/28 05:14:12;;;;;;;15.97;9.83;;;;;;;;;;5051541;28;20029;-63
2024/01/28 05:16:37;;;;;;;14.13;9.07;;;;;;;;;;5052688;28;20482;-63
2024/01/28 05:19:02;;;;;;;25.52;9.65;;;;;;;;;;5051150;28;20067;-63
2024/01/28 05:21:28;;;;;;;41.97;15.07;;;;;;;;;;5053107;28;20016;-63
2024/01/28 05:23:53;;;;;;;15.25;10.90;;;;;;;;;;5051247;28;20586;-62
2024/01/28 05:26:18;;;;;;;18.85;12.15;;;;;;;;;;5052211;28;20025;-63
2024/01/28 05:28:45;;;;;;;16.43;10.27;;;;;;;;;;5050711;28;20112;-63
2024/01/28 05:31:10;;;;;;;21.55;10.43;;;;;;;;;;5052023;28;20439;-63
2024/01/28 05:33:37;;;;;;;14.95;9.43;;;;;;;;;;5059663;28;20120;-64
2024/01/28 05:36:20;;;;;;;11.68;10.30;;;;;;;;;;5070487;28;20021;-63
2024/01/28 05:38:45;;;;;;;23.15;10.20;;;;;;;;;;5050711;28;20044;-64
2024/01/28 05:41:10;;;;;;;17.73;11.63;;;;;;;;;;5052146;28;20025;-64
2024/01/28 05:43:36;;;;;;;13.50;8.50;;;;;;;;;;5050787;28;20496;-64
2024/01/28 05:46:02;;;;;;;24.10;11.50;;;;;;;;;;5052301;28;20424;-64
2024/01/28 05:48:27;;;;;;;18.65;12.40;;;;;;;;;;5050532;28;20082;-64
2024/01/28 05:50:52;;;;;;;23.08;12.52;;;;;;;;;;5051984;28;20017;-64
2024/01/28 05:53:17;;;;;;;10.43;8.98;;;;;;;;;;5050726;28;20071;-64
2024/01/28 05:55:43;;;;;;;12.00;9.68;;;;;;;;;;5051567;28;20009;-63
2024/01/28 05:58:08;;;;;;;20.60;12.63;;;;;;;;;;5051953;28;20036;-63
2024/01/28 06:00:33;;;;;;;24.30;12.48;;;;;;;;;;5050535;28;20037;-63
2024/01/28 06:02:59;;;;;;;16.75;9.45;;;;;;;;;;5051523;28;20078;-63
2024/01/28 06:05:24;;;;;;;20.35;10.55;;;;;;;;;;5050365;28;20044;-63
2024/01/28 06:07:49;;;;;;;15.27;9.57;;;;;;;;;;5051689;28;20024;-63
2024/01/28 06:10:14;;;;;;;21.73;11.87;;;;;;;;;;5050138;28;21025;-64
2024/01/28 06:12:39;;;;;;;16.90;10.57;;;;;;;;;;5051632;28;20411;-64
2024/01/28 06:15:08;;;;;;;21.25;9.85;;;;;;;;;;5050167;28;20426;-64
2024/01/28 06:17:33;;;;;;;14.60;10.43;;;;;;;;;;5050961;28;20090;-64
2024/01/28 06:19:58;;;;;;;14.77;12.00;;;;;;;;;;5050050;28;20446;-64
2024/01/28 06:22:23;;;;;;;16.53;10.07;;;;;;;;;;5051735;28;20021;-64
2024/01/28 06:24:48;;;;;;;21.77;12.10;;;;;;;;;;5049574;28;20846;-64
2024/01/28 06:27:13;;;;;;;16.53;10.03;;;;;;;;;;5051610;28;20482;-64
2024/01/28 06:29:39;;;;;;;30.70;14.80;;;;;;;;;;5049631;28;20448;-63
2024/01/28 06:32:04;;;;;;;20.77;11.80;;;;;;;;;;5051311;28;20803;-63
2024/01/28 06:34:29;;;;;;;21.60;11.27;;;;;;;;;;5049384;28;20451;-62
2024/01/28 06:36:55;;;;;;;17.13;10.40;;;;;;;;;;5051038;28;20081;-62
2024/01/28 06:39:20;;;;;;;27.47;10.27;;;;;;;;;;5049176;28;20560;-62
2024/01/28 06:41:45;;;;;;;23.80;10.83;;;;;;;;;;5050031;28;20423;-63
2024/01/28 06:44:11;;;;;;;18.33;11.13;;;;;;;;;;5047729;28;20464;-62
2024/01/28 06:46:36;;;;;;;16.08;10.48;;;;;;;;;;5050504;28;20021;-62
2024/01/28 06:49:03;;;;;;;13.03;10.03;;;;;;;;;;5049435;28;20052;-62
2024/01/28 06:51:28;;;;;;;15.23;12.18;;;;;;;;;;5049544;28;20845;-62
2024/01/28 06:53:53;;;;;;;17.35;13.65;;;;;;;;;;5048642;28;20035;-62
2024/01/28 06:56:19;;;;;;;21.67;12.33;;;;;;;;;;5049888;28;20017;-63
2024/01/28 06:58:44;;;;;;;21.10;13.20;;;;;;;;;;5047950;28;20834;-63
2024/01/28 07:01:10;;;;;;;18.67;12.75;;;;;;;;;;5050339;28;20111;-62
2024/01/28 07:03:35;;;;;;;26.83;12.43;;;;;;;;;;5049149;28;20044;-62
2024/01/28 07:06:00;;;;;;;36.80;14.13;;;;;;;;;;5049152;28;20024;-62
2024/01/28 07:08:25;;;;;;;19.13;13.23;;;;;;;;;;5048460;28;20024;-62
2024/01/28 07:10:50;;;;;;;24.27;12.67;;;;;;;;;;5050009;28;20083;-63
2024/01/28 07:13:16;;;;;;;17.02;12.93;;;;;;;;;;5048687;28;20866;-62
2024/01/28 07:15:41;;;;;;;20.90;14.07;;;;;;;;;;5049206;28;20714;-62
2024/01/28 07:18:07;;;;;;;24.20;13.20;;;;;;;;;;5049850;28;20108;-62
2024/01/28 07:20:32;;;;;;;15.98;11.55;;;;;;;;;;5048848;28;20412;-61
2024/01/28 07:22:57;;;;;;;23.83;15.32;;;;;;;;;;5048434;28;20020;-62
2024/01/28 07:25:22;;;;;;;27.00;13.48;;;;;;;;;;5048446;28;20043;-61
2024/01/28 07:27:47;;;;;;;17.70;12.00;;;;;;;;;;5049630;28;20052;-62
2024/01/28 07:30:13;;;;;;;18.02;10.93;;;;;;;;;;5047171;28;20439;-62
2024/01/28 07:32:38;;;;;;;24.73;16.08;;;;;;;;;;5048866;28;20022;-59
2024/01/28 07:35:04;;;;;;;42.83;28.67;;;;;;;;;;5048605;28;20033;-59
2024/01/28 07:37:29;;;;;;;21.92;16.27;;;;;;;;;;5049011;28;20443;-60
2024/01/28 07:39:54;;;;;;;24.52;13.48;;;;;;;;;;5047663;28;20376;-59
2024/01/28 07:42:19;;;;;;;21.30;12.77;;;;;;;;;;5049965;28;20020;-59
2024/01/28 07:44:45;;;;;;;37.03;12.67;;;;;;;;;;5046626;28;20455;-59
2024/01/28 07:47:10;;;;;;;20.80;10.40;;;;;;;;;;5048763;28;20476;-59
2024/01/28 07:49:35;;;;;;;19.58;10.38;;;;;;;;;;5048405;28;20493;-59
2024/01/28 07:52:00;;;;;;;15.35;9.73;;;;;;;;;;5048340;28;20063;-59
2024/01/28 07:54:25;;;;;;;12.73;11.23;;;;;;;;;;5050742;28;20067;-59
2024/01/28 07:56:51;;;;;;;20.13;10.30;;;;;;;;;;5053812;28;20439;-59
2024/01/28 07:59:17;;;;;;;10.73;8.80;;;;;;;;;;5051387;28;20463;-59
2024/01/28 08:01:42;;;;;;;17.52;11.48;;;;;;;;;;5053063;28;20425;-59
2024/01/28 08:04:07;;;;;;;18.27;9.60;;;;;;;;;;5052094;28;20098;-59
2024/01/28 08:06:32;;;;;;;30.80;9.37;;;;;;;;;;5052048;28;20447;-59
2024/01/28 08:08:58;;;;;;;16.53;11.33;;;;;;;;;;5051604;28;20462;-59
2024/01/28 08:11:23;;;;;;;22.52;9.93;;;;;;;;;;5053763;28;20501;-59
2024/01/28 08:13:48;;;;;;;11.20;10.03;;;;;;;;;;5049924;28;20033;-58
2024/01/28 08:16:13;;;;;;;25.10;12.17;;;;;;;;;;5033951;28;20529;-59
2024/01/28 08:18:39;;;;;;;18.63;11.32;;;;;;;;;;5047264;28;20447;-59
2024/01/28 08:21:04;;;;;;;14.68;10.18;;;;;;;;;;5051832;28;20020;-59
2024/01/28 08:23:29;;;;;;;19.08;8.93;;;;;;;;;;5051263;28;20025;-59
2024/01/28 08:25:55;;;;;;;16.73;10.03;;;;;;;;;;5052972;28;20021;-59
2024/01/28 08:28:21;;;;;;;12.50;10.60;;;;;;;;;;5051057;28;20482;-59
2024/01/28 08:30:46;;;;;;;17.25;8.52;;;;;;;;;;5052761;28;20020;-59
2024/01/28 08:33:12;;;;;;;16.65;9.27;;;;;;;;;;5053321;28;20379;-59
2024/01/28 08:35:37;;;;;;;14.55;10.38;;;;;;;;;;5050705;28;20037;-59
2024/01/28 08:38:03;;;;;;;13.05;8.77;;;;;;;;;;5052437;28;20021;-59
2024/01/28 08:40:28;;;;;;;12.18;8.80;;;;;;;;;;5051468;28;20069;-59
2024/01/28 08:42:53;;;;;;;8.80;7.43;;;;;;;;;;5050642;28;20021;-59
2024/01/28 08:45:19;;;;;;;13.20;7.85;;;;;;;;;;5050701;28;20459;-59
2024/01/28 08:47:44;;;;;;;8.95;8.05;;;;;;;;;;5052551;28;20033;-59
2024/01/28 08:50:09;;;;;;;10.17;7.43;;;;;;;;;;5050607;28;20033;-59
2024/01/28 08:52:35;;;;;;;16.00;7.53;;;;;;;;;;5052493;28;20419;-59
2024/01/28 08:55:00;;;;;;;15.80;8.73;;;;;;;;;;5051129;28;20112;-58
2024/01/28 08:57:25;;;;;;;13.77;8.57;;;;;;;;;;5051716;28;20447;-59
2024/01/28 08:59:50;;;;;;;9.60;7.32;;;;;;;;;;5050398;28;20033;-59
2024/01/28 09:02:16;;;;;;;10.98;8.52;;;;;;;;;;5052083;28;20118;-60
2024/01/28 09:04:41;;;;;;;12.07;8.63;;;;;;;;;;5049396;28;20044;-59
2024/01/28 09:07:06;;;;;;;8.57;6.00;;;;;;;;;;5052170;28;20819;-59
2024/01/28 09:09:31;;;;;;;17.02;6.65;;;;;;;;;;5050830;28;20464;-59
2024/01/28 09:11:56;;;;;;;13.63;6.73;;;;;;;;;;5051815;28;20096;-57
2024/01/28 09:14:22;;;;;;;11.73;5.43;;;;;;;;;;5050175;28;21111;-57
2024/01/28 09:16:47;;;;;;;10.17;4.87;;;;;;;;;;5051777;28;20461;-57
2024/01/28 09:19:12;;;;;;;13.20;5.82;;;;;;;;;;5049172;28;20440;-57
2024/01/28 09:21:37;;;;;;;10.95;5.50;;;;;;;;;;5049908;28;20028;-57
2024/01/28 09:24:03;;;;;;;6.00;3.97;;;;;;;;;;5049285;28;20029;-57
2024/01/28 09:26:28;;;;;;;6.22;5.45;;;;;;;;;;5050482;28;20427;-57
2024/01/28 09:28:53;;;;;;;8.70;5.93;;;;;;;;;;5048528;28;20116;-58
2024/01/28 09:31:18;;;;;;;8.70;5.45;;;;;;;;;;5050700;28;20447;-58
2024/01/28 09:33:43;;;;;;;6.20;4.97;;;;;;;;;;5049704;28;20025;-57
2024/01/28 09:36:08;;;;;;;10.93;4.37;;;;;;;;;;5051804;28;20426;-58
2024/01/28 09:38:34;;;;;;;12.97;3.67;;;;;;;;;;5050412;28;20516;-57
2024/01/28 09:41:04;;;;;;;7.07;5.07;;;;;;;;;;5051719;28;21034;-57
2024/01/28 09:43:29;;;;;;;6.43;4.55;;;;;;;;;;5050550;28;20021;-57
2024/01/28 09:45:55;;;;;;;15.10;5.07;;;;;;;;;;5051808;28;20020;-58
2024/01/28 09:48:20;;;;;;;8.05;4.30;;;;;;;;;;5050597;28;20021;-57
2024/01/28 09:50:46;;;;;;;11.38;4.10;;;;;;;;;;5051699;28;20068;-58
2024/01/28 09:53:13;;;;;;;8.18;5.35;;;;;;;;;;5051722;28;20162;-58
2024/01/28 09:55:38;;;;;;;5.72;4.60;;;;;;;;;;5050323;28;20039;-58
2024/01/28 09:58:03;;;;;;;12.55;4.32;;;;;;;;;;5050919;28;20096;-58
2024/01/28 10:00:29;;;;;;;9.25;3.88;;;;;;;;;;5049746;28;20400;-58
2024/01/28 10:02:54;;;;;;;5.15;3.35;;;;;;;;;;5051538;28;20472;-58
2024/01/28 10:05:19;;;;;;;3.85;3.38;;;;;;;;;;5050283;28;20033;-58
2024/01/28 10:07:47;;;;;;;6.37;4.50;;;;;;;;;;5050835;28;20546;-58
2024/01/28 10:10:13;;;;;;;12.90;4.80;;;;;;;;;;5050165;28;20799;-58
2024/01/28 10:12:38;;;;;;;6.07;3.10;;;;;;;;;;5051554;28;20017;-58
2024/01/28 10:15:12;;;;;;;4.47;3.25;;;;;;;;;;5049506;28;20132;-58
2024/01/28 10:17:37;;;;;;;10.32;4.47;;;;;;;;;;5050610;28;20520;-58
2024/01/28 10:20:07;;;;;;;4.60;4.03;;;;;;;;;;5050032;28;20172;-58
2024/01/28 10:22:32;;;;;;;4.95;3.90;;;;;;;;;;5050795;28;20423;-58
2024/01/28 10:24:57;;;;;;;5.80;4.18;;;;;;;;;;5049457;28;20123;-58
2024/01/28 10:27:22;;;;;;;5.93;3.57;;;;;;;;;;5051154;28;20056;-58
2024/01/28 10:29:48;;;;;;;8.97;3.70;;;;;;;;;;5049250;28;20451;-58
2024/01/28 10:32:13;;;;;;;7.18;3.78;;;;;;;;;;5050973;28;20021;-58
2024/01/28 10:34:39;;;;;;;7.93;5.27;;;;;;;;;;5049359;28;20116;-58
2024/01/28 10:37:04;;;;;;;6.45;3.80;;;;;;;;;;5050275;28;20416;-58
2024/01/28 10:39:34;;;;;;;7.25;4.28;;;;;;;;;;5049367;28;20043;-58
2024/01/28 10:41:59;;;;;;;9.45;3.63;;;;;;;;;;5050813;28;20028;-58
2024/01/28 10:44:25;;;;;;;11.32;5.03;;;;;;;;;;5049251;28;20033;-57
2024/01/28 10:46:55;;;;;;;6.25;4.45;;;;;;;;;;5050718;28;20460;-58
2024/01/28 10:49:29;;;;;;;5.05;3.78;;;;;;;;;;5049786;28;20412;-58
2024/01/28 10:51:57;;;;;;;7.13;4.20;;;;;;;;;;5048955;28;20392;-58
2024/01/28 10:54:22;;;;;;;4.00;3.53;;;;;;;;;;5049186;28;20492;-58
2024/01/28 10:56:48;;;;;;;6.35;4.43;;;;;;;;;;5049269;28;20075;-58
2024/01/28 10:59:14;;;;;;;5.90;3.58;;;;;;;;;;5048809;28;20060;-58
2024/01/28 11:01:39;;;;;;;6.80;3.42;;;;;;;;;;5050517;28;20039;-58
2024/01/28 11:04:05;;;;;;;3.95;3.20;;;;;;;;;;5049176;28;20511;-57
2024/01/28 11:06:30;;;;;;;3.92;2.95;;;;;;;;;;5050366;28;20024;-58
2024/01/28 11:08:56;;;;;;;8.55;3.80;;;;;;;;;;5048958;28;20036;-58
2024/01/28 11:11:22;;;;;;;4.38;2.60;;;;;;;;;;5049137;28;20021;-58
2024/01/28 11:13:47;;;;;;;6.47;3.40;;;;;;;;;;5047283;28;20377;-58
2024/01/28 11:16:14;;;;;;;6.18;4.50;;;;;;;;;;5049859;28;20020;-58
2024/01/28 11:18:39;;;;;;;5.53;4.25;;;;;;;;;;5047787;28;20108;-59
2024/01/28 11:21:18;;;;;;;8.00;3.88;;;;;;;;;;5049557;28;20479;-58
2024/01/28 11:23:44;;;;;;;3.47;3.17;;;;;;;;;;5047680;28;20052;-58
2024/01/28 11:26:16;;;;;;;4.03;2.80;;;;;;;;;;5050114;28;20017;-58
2024/01/28 11:28:52;;;;;;;7.22;3.85;;;;;;;;;;5048912;28;20033;-58
2024/01/28 11:31:33;;;;;;;3.63;3.25;;;;;;;;;;5053873;28;20029;-57
2024/01/28 11:34:18;;;;;;;6.05;4.35;;;;;;;;;;5042590;28;20033;-57
2024/01/28 11:36:44;;;;;;;3.97;2.90;;;;;;;;;;5053003;28;20036;-58
2024/01/28 11:39:12;;;;;;;8.23;3.40;;;;;;;;;;5051469;28;20090;-57
2024/01/28 11:41:37;;;;;;;6.90;3.65;;;;;;;;;;5053930;28;20024;-58
2024/01/28 11:44:03;;;;;;;6.47;3.70;;;;;;;;;;5052322;28;20029;-58
2024/01/28 11:46:29;;;;;;;12.98;3.80;;;;;;;;;;5053863;28;20021;-58
2024/01/28 11:48:54;;;;;;;6.82;3.90;;;;;;;;;;5052249;28;20112;-58
2024/01/28 11:51:19;;;;;;;3.43;3.07;;;;;;;;;;5052939;28;20101;-58
2024/01/28 11:53:45;;;;;;;6.83;4.27;;;;;;;;;;5051217;28;20036;-57
2024/01/28 11:56:10;;;;;;;6.57;3.20;;;;;;;;;;5045271;28;20034;-58
2024/01/28 11:58:35;;;;;;;8.45;3.45;;;;;;;;;;5039576;28;20101;-58
2024/01/28 12:01:00;;;;;;;7.25;4.63;;;;;;;;;;5051222;28;20013;-58
2024/01/28 12:03:25;;;;;;;5.17;3.17;;;;;;;;;;5050843;28;20020;-58
2024/01/28 12:05:51;;;;;;;5.90;4.05;;;;;;;;;;5052697;28;20561;-58
2024/01/28 12:08:26;;;;;;;10.20;3.77;;;;;;;;;;5052702;28;20021;-59
2024/01/28 12:11:02;;;;;;;5.55;4.25;;;;;;;;;;5071513;28;20446;-58
2024/01/28 12:13:27;;;;;;;6.93;3.53;;;;;;;;;;5070886;28;20028;-57
2024/01/28 12:15:55;;;;;;;6.73;4.10;;;;;;;;;;5073095;28;20012;-58
2024/01/28 12:18:21;;;;;;;4.23;2.83;;;;;;;;;;5071303;28;20430;-57
2024/01/28 12:20:49;;;;;;;8.25;3.67;;;;;;;;;;5072344;28;20472;-57
2024/01/28 12:23:17;;;;;;;5.25;3.30;;;;;;;;;;5072676;28;20025;-58
2024/01/28 12:25:42;;;;;;;10.60;6.18;;;;;;;;;;5071726;28;20040;-57
2024/01/28 12:28:08;;;;;;;5.90;4.13;;;;;;;;;;5072835;28;20496;-58
2024/01/28 12:30:33;;;;;;;7.17;4.87;;;;;;;;;;5072025;28;20450;-58
2024/01/28 12:32:58;;;;;;;4.83;3.50;;;;;;;;;;5072618;28;20431;-58
2024/01/28 12:35:23;;;;;;;14.20;4.83;;;;;;;;;;5070794;28;20482;-58
2024/01/28 12:37:48;;;;;;;9.43;4.20;;;;;;;;;;5072090;28;21002;-58
2024/01/28 12:40:13;;;;;;;10.07;3.83;;;;;;;;;;5070836;28;20458;-57
2024/01/28 12:42:40;;;;;;;5.83;4.00;;;;;;;;;;5072293;28;20012;-58
2024/01/28 12:45:06;;;;;;;7.97;3.95;;;;;;;;;;5071606;28;20451;-58
2024/01/28 12:47:33;;;;;;;7.43;4.85;;;;;;;;;;5072644;28;20028;-58
2024/01/28 12:49:58;;;;;;;5.05;4.50;;;;;;;;;;5070622;28;20039;-58
2024/01/28 12:52:24;;;;;;;6.23;4.07;;;;;;;;;;5073132;28;20103;-58
2024/01/28 12:54:49;;;;;;;7.80;3.55;;;;;;;;;;5071311;28;20478;-58
2024/01/28 12:57:14;;;;;;;5.47;3.93;;;;;;;;;;5071519;28;20020;-58
2024/01/28 12:59:40;;;;;;;4.97;3.85;;;;;;;;;;5070544;28;20032;-58
2024/01/28 13:02:06;;;;;;;6.55;3.97;;;;;;;;;;5073172;28;20485;-58
2024/01/28 13:04:31;;;;;;;5.72;3.75;;;;;;;;;;5070276;28;20147;-58
2024/01/28 13:06:56;;;;;;;6.53;3.23;;;;;;;;;;5072445;28;20031;-58
2024/01/28 13:09:21;;;;;;;7.20;4.00;;;;;;;;;;5071245;28;20032;-58
2024/01/28 13:11:47;;;;;;;4.20;2.83;;;;;;;;;;5071544;28;20074;-58
2024/01/28 13:14:12;;;;;;;4.90;3.57;;;;;;;;;;5071404;28;20446;-58
2024/01/28 13:16:38;;;;;;;6.22;3.47;;;;;;;;;;5072644;28;20095;-58
2024/01/28 13:19:03;;;;;;;5.90;3.50;;;;;;;;;;5070460;28;20496;-58
2024/01/28 13:21:28;;;;;;;30.63;5.10;;;;;;;;;;5071855;28;20465;-58
2024/01/28 13:23:53;;;;;;;10.67;3.93;;;;;;;;;;5070564;28;20450;-58
2024/01/28 13:26:20;;;;;;;9.25;4.93;;;;;;;;;;5072558;28;20438;-58
2024/01/28 13:28:45;;;;;;;7.00;3.58;;;;;;;;;;5065513;28;20025;-58
2024/01/28 13:31:11;;;;;;;7.20;4.53;;;;;;;;;;5051924;28;20032;-58
2024/01/28 13:33:36;;;;;;;10.93;4.57;;;;;;;;;;5050378;28;20102;-58
2024/01/28 13:36:01;;;;;;;6.05;4.63;;;;;;;;;;5052842;28;20020;-58
2024/01/28 13:38:27;;;;;;;7.47;3.77;;;;;;;;;;5050103;28;20212;-58
2024/01/28 13:40:52;;;;;;;7.75;4.15;;;;;;;;;;5051996;28;20483;-58
2024/01/28 13:43:17;;;;;;;6.15;3.13;;;;;;;;;;5050209;28;20075;-60
2024/01/28 13:45:42;;;;;;;7.00;4.60;;;;;;;;;;5052179;28;20021;-60
2024/01/28 13:48:08;;;;;;;7.80;3.73;;;;;;;;;;5050725;28;20029;-60
2024/01/28 13:50:33;;;;;;;5.90;4.07;;;;;;;;;;5048662;28;20041;-59
2024/01/28 13:52:58;;;;;;;10.97;4.07;;;;;;;;;;5063197;28;20376;-60
2024/01/28 13:55:23;;;;;;;5.57;3.50;;;;;;;;;;5046134;28;20458;-59
2024/01/28 13:57:49;;;;;;;6.15;4.47;;;;;;;;;;5047842;28;20419;-60
2024/01/28 14:00:14;;;;;;;8.77;3.38;;;;;;;;;;5046245;28;20044;-60
2024/01/28 14:02:41;;;;;;;6.05;4.25;;;;;;;;;;5046955;28;20049;-59
2024/01/28 14:05:07;;;;;;;7.47;2.60;;;;;;;;;;5047075;28;20095;-59
2024/01/28 14:07:33;;;;;;;10.20;3.83;;;;;;;;;;5050071;28;20025;-59
2024/01/28 14:09:58;;;;;;;5.60;3.50;;;;;;;;;;5060525;28;20091;-59
2024/01/28 14:12:23;;;;;;;6.57;3.97;;;;;;;;;;5051141;28;20102;-58
2024/01/28 14:14:48;;;;;;;8.73;4.77;;;;;;;;;;5048132;28;20546;-58
2024/01/28 14:17:13;;;;;;;7.67;3.40;;;;;;;;;;5051177;28;20415;-58
2024/01/28 14:19:40;;;;;;;8.15;3.40;;;;;;;;;;5048867;28;20448;-59